Time,TemperatureF,DewpointF,PressureIn,WindDirection,WindDirectionDegrees,WindSpeedMPH,WindSpeedGustMPH,Humidity,HourlyPrecipIn,Conditions,Clouds,dailyrainin,SoftwareType,DateUTC
2013-02-24 00:08:00,36.9,36.6,29.57,NE,45,5.1,-999.0,99,-99.99,,,0.00,Acu-Link.com,2013-02-24 05:08:00,
2013-02-24 00:23:00,36.7,36.4,29.57,North,0,2.7,-999.0,99,-99.99,,,0.00,Acu-Link.com,2013-02-24 05:23:00,
2013-02-24 00:39:00,36.7,36.4,29.57,SSW,202,1.6,-999.0,99,-99.99,,,0.00,Acu-Link.com,2013-02-24 05:39:00,
2013-02-24 00:54:00,36.7,36.4,29.57,NE,45,3.8,-999.0,99,-99.99,,,0.00,Acu-Link.com,2013-02-24 05:54:00,
2013-02-24 01:09:00,36.7,36.4,29.57,SW,225,1.1,-999.0,99,-99.99,,,0.00,Acu-Link.com,2013-02-24 06:09:00,
2013-02-24 01:24:00,36.7,36.4,29.57,ESE,112,1.6,-999.0,99,-99.99,,,0.00,Acu-Link.com,2013-02-24 06:24:00,
2013-02-24 01:40:00,36.7,36.4,29.57,North,0,2.2,-999.0,99,-99.99,,,0.00,Acu-Link.com,2013-02-24 06:40:00,
2013-02-24 01:55:00,36.7,36.4,29.57,West,270,2.7,-999.0,99,-99.99,,,0.00,Acu-Link.com,2013-02-24 06:55:00,
2013-02-24 02:10:00,36.7,36.4,29.56,SSW,202,1.1,-999.0,99,-99.99,,,0.00,Acu-Link.com,2013-02-24 07:10:00,
2013-02-24 02:25:00,36.7,36.4,29.56,WSW,247,1.6,-999.0,99,-99.99,,,0.00,Acu-Link.com,2013-02-24 07:25:00,
2013-02-24 02:40:00,37.0,36.8,29.56,NNW,337,1.1,-999.0,99,-99.99,,,0.00,Acu-Link.com,2013-02-24 07:40:00,
2013-02-24 02:55:00,37.0,36.8,29.57,West,270,1.6,-999.0,99,-99.99,,,0.00,Acu-Link.com,2013-02-24 07:55:00,
2013-02-24 03:11:00,37.0,36.8,29.57,WSW,247,1.1,-999.0,99,-99.99,,,0.00,Acu-Link.com,2013-02-24 08:11:00,
2013-02-24 03:26:00,37.0,36.8,29.56,West,270,1.1,-999.0,99,-99.99,,,0.00,Acu-Link.com,2013-02-24 08:26:00,
2013-02-24 03:41:00,37.0,36.8,29.56,NNW,337,1.1,-999.0,99,-99.99,,,0.00,Acu-Link.com,2013-02-24 08:41:00,
2013-02-24 03:57:00,37.0,36.8,29.56,WNW,292,1.6,-999.0,99,-99.99,,,0.00,Acu-Link.com,2013-02-24 08:57:00,
2013-02-24 04:18:00,36.9,36.6,29.55,WNW,292,1.6,-999.0,99,-99.99,,,0.00,Acu-Link.com,2013-02-24 09:18:00,
2013-02-24 04:33:00,36.9,36.6,29.55,WNW,292,1.6,-999.0,99,-99.99,,,0.00,Acu-Link.com,2013-02-24 09:33:00,
2013-02-24 04:48:00,36.9,36.6,29.54,East,90,1.6,-999.0,99,-99.99,,,0.00,Acu-Link.com,2013-02-24 09:48:00,
2013-02-24 05:03:00,36.7,36.4,29.53,SW,225,2.2,-999.0,99,-99.99,,,0.01,Acu-Link.com,2013-02-24 10:03:00,
2013-02-24 05:19:00,36.5,36.2,29.53,NNE,22,1.1,-999.0,99,-99.99,,,0.01,Acu-Link.com,2013-02-24 10:19:00,
2013-02-24 05:34:00,36.5,36.2,29.54,West,270,0.0,-999.0,99,-99.99,,,0.01,Acu-Link.com,2013-02-24 10:34:00,
2013-02-24 05:49:00,36.5,36.2,29.55,North,0,0.0,-999.0,99,-99.99,,,0.01,Acu-Link.com,2013-02-24 10:49:00,
2013-02-24 06:04:00,36.7,36.4,29.55,West,270,1.6,-999.0,99,-99.99,,,0.01,Acu-Link.com,2013-02-24 11:04:00,
2013-02-24 06:19:00,36.9,36.6,29.55,West,270,0.0,-999.0,99,-99.99,,,0.01,Acu-Link.com,2013-02-24 11:19:00,
2013-02-24 06:35:00,36.9,36.6,29.55,West,270,1.6,-999.0,99,-99.99,,,0.01,Acu-Link.com,2013-02-24 11:35:00,
2013-02-24 06:50:00,37.0,36.8,29.56,West,270,1.1,-999.0,99,-99.99,,,0.01,Acu-Link.com,2013-02-24 11:50:00,
2013-02-24 07:05:00,37.0,36.8,29.55,NNE,22,1.6,-999.0,99,-99.99,,,0.01,Acu-Link.com,2013-02-24 12:05:00,
2013-02-24 07:20:00,37.2,37.0,29.55,SSW,202,2.2,-999.0,99,-99.99,,,0.01,Acu-Link.com,2013-02-24 12:20:00,
2013-02-24 07:36:00,37.4,37.1,29.55,NNW,337,1.6,-999.0,99,-99.99,,,0.01,Acu-Link.com,2013-02-24 12:36:00,
2013-02-24 07:51:00,37.8,37.5,29.55,WNW,292,1.1,-999.0,99,-99.99,,,0.01,Acu-Link.com,2013-02-24 12:51:00,
2013-02-24 08:06:00,38.3,38.0,29.55,SW,225,1.6,-999.0,99,-99.99,,,0.01,Acu-Link.com,2013-02-24 13:06:00,
2013-02-24 08:21:00,39.2,38.7,29.55,West,270,3.8,-999.0,98,-99.99,,,0.01,Acu-Link.com,2013-02-24 13:21:00,
2013-02-24 08:36:00,39.2,37.9,29.56,NNW,337,0.0,-999.0,95,-99.99,,,0.01,Acu-Link.com,2013-02-24 13:36:00,
2013-02-24 08:52:00,41.2,39.3,29.56,West,270,1.1,-999.0,93,-99.99,,,0.01,Acu-Link.com,2013-02-24 13:52:00,
2013-02-24 09:07:00,42.4,39.4,29.56,NW,315,1.1,-999.0,89,-99.99,,,0.01,Acu-Link.com,2013-02-24 14:07:00,
2013-02-24 09:22:00,43.0,39.7,29.56,NW,315,1.1,-999.0,88,-99.99,,,0.01,Acu-Link.com,2013-02-24 14:22:00,
2013-02-24 09:37:00,44.2,40.0,29.55,NNE,22,1.6,-999.0,85,-99.99,,,0.01,Acu-Link.com,2013-02-24 14:37:00,
2013-02-24 09:53:00,44.6,39.8,29.55,West,270,3.8,-999.0,83,-99.99,,,0.01,Acu-Link.com,2013-02-24 14:53:00,
2013-02-24 10:08:00,44.2,39.7,29.56,NNE,22,2.2,-999.0,84,-99.99,,,0.01,Acu-Link.com,2013-02-24 15:08:00,
2013-02-24 10:23:00,44.6,39.8,29.56,West,270,2.2,-999.0,83,-99.99,,,0.01,Acu-Link.com,2013-02-24 15:23:00,
2013-02-24 10:38:00,44.8,39.3,29.56,West,270,2.2,-999.0,81,-99.99,,,0.01,Acu-Link.com,2013-02-24 15:38:00,
2013-02-24 10:54:00,45.5,39.0,29.56,WSW,247,3.1,-999.0,78,-99.99,,,0.01,Acu-Link.com,2013-02-24 15:54:00,
2013-02-24 11:09:00,46.4,38.9,29.56,WNW,292,5.8,-999.0,75,-99.99,,,0.01,Acu-Link.com,2013-02-24 16:09:00,
2013-02-24 11:24:00,46.9,39.4,29.56,WNW,292,1.6,-999.0,75,-99.99,,,0.01,Acu-Link.com,2013-02-24 16:24:00,
2013-02-24 11:40:00,47.1,38.9,29.56,South,180,1.6,-999.0,73,-99.99,,,0.01,Acu-Link.com,2013-02-24 16:40:00,
2013-02-24 11:55:00,46.9,38.0,29.56,West,270,1.6,-999.0,71,-99.99,,,0.01,Acu-Link.com,2013-02-24 16:55:00,
2013-02-24 12:10:00,48.2,38.5,29.56,NW,315,2.7,-999.0,69,-99.99,,,0.01,Acu-Link.com,2013-02-24 17:10:00,
2013-02-24 12:25:00,48.0,37.2,29.54,South,180,2.7,-999.0,66,-99.99,,,0.01,Acu-Link.com,2013-02-24 17:25:00,
2013-02-24 12:40:00,48.6,35.3,29.54,West,270,3.1,-999.0,60,-99.99,,,0.01,Acu-Link.com,2013-02-24 17:40:00,
2013-02-24 12:55:00,48.9,35.2,29.53,WSW,247,3.1,-999.0,59,-99.99,,,0.01,Acu-Link.com,2013-02-24 17:55:00,
2013-02-24 13:11:00,48.4,34.7,29.54,NW,315,8.9,-999.0,59,-99.99,,,0.01,Acu-Link.com,2013-02-24 18:11:00,
2013-02-24 13:26:00,48.2,34.6,29.53,WNW,292,2.2,-999.0,59,-99.99,,,0.01,Acu-Link.com,2013-02-24 18:26:00,
2013-02-24 13:41:00,47.5,33.9,29.53,WSW,247,3.1,-999.0,59,-99.99,,,0.01,Acu-Link.com,2013-02-24 18:41:00,
2013-02-24 13:57:00,48.2,33.7,29.53,WSW,247,2.7,-999.0,57,-99.99,,,0.01,Acu-Link.com,2013-02-24 18:57:00,
2013-02-24 14:12:00,49.3,32.9,29.54,WSW,247,4.7,-999.0,53,-99.99,,,0.01,Acu-Link.com,2013-02-24 19:12:00,
2013-02-24 14:27:00,47.3,32.0,29.54,WNW,292,3.1,-999.0,55,-99.99,,,0.01,Acu-Link.com,2013-02-24 19:27:00,
2013-02-24 14:43:00,49.3,31.4,29.53,SW,225,6.3,-999.0,50,-99.99,,,0.01,Acu-Link.com,2013-02-24 19:43:00,
2013-02-24 14:58:00,50.7,31.8,29.53,WSW,247,4.7,-999.0,48,-99.99,,,0.01,Acu-Link.com,2013-02-24 19:58:00,
2013-02-24 15:13:00,48.4,32.0,29.54,NNW,337,3.8,-999.0,53,-99.99,,,0.01,Acu-Link.com,2013-02-24 20:13:00,
2013-02-24 15:28:00,47.1,30.9,29.55,WNW,292,4.7,-999.0,53,-99.99,,,0.01,Acu-Link.com,2013-02-24 20:28:00,
2013-02-24 15:43:00,46.4,31.1,29.56,NW,315,2.7,-999.0,55,-99.99,,,0.01,Acu-Link.com,2013-02-24 20:43:00,
2013-02-24 15:59:00,45.3,31.4,29.56,WSW,247,5.1,-999.0,58,-99.99,,,0.01,Acu-Link.com,2013-02-24 20:59:00,
2013-02-24 16:14:00,43.9,30.9,29.57,West,270,9.4,-999.0,60,-99.99,,,0.01,Acu-Link.com,2013-02-24 21:14:00,
2013-02-24 16:29:00,43.2,31.4,29.58,West,270,3.1,-999.0,63,-99.99,,,0.01,Acu-Link.com,2013-02-24 21:29:00,
2013-02-24 16:44:00,42.4,31.5,29.59,WSW,247,2.7,-999.0,65,-99.99,,,0.01,Acu-Link.com,2013-02-24 21:44:00,
2013-02-24 17:00:00,41.2,31.1,29.59,West,270,5.8,-999.0,67,-99.99,,,0.01,Acu-Link.com,2013-02-24 22:00:00,
2013-02-24 17:15:00,40.5,31.1,29.61,WSW,247,4.7,-999.0,69,-99.99,,,0.01,Acu-Link.com,2013-02-24 22:15:00,
2013-02-24 17:30:00,39.2,29.9,29.63,NNW,337,2.7,-999.0,69,-99.99,,,0.01,Acu-Link.com,2013-02-24 22:30:00,
2013-02-24 17:45:00,38.7,28.7,29.63,West,270,5.1,-999.0,67,-99.99,,,0.01,Acu-Link.com,2013-02-24 22:45:00,
2013-02-24 18:00:00,38.3,28.3,29.65,West,270,3.1,-999.0,67,-99.99,,,0.01,Acu-Link.com,2013-02-24 23:00:00,
2013-02-24 18:15:00,38.1,27.4,29.66,West,270,4.3,-999.0,65,-99.99,,,0.01,Acu-Link.com,2013-02-24 23:15:00,
2013-02-24 18:31:00,37.8,25.5,29.67,WNW,292,6.7,-999.0,61,-99.99,,,0.01,Acu-Link.com,2013-02-24 23:31:00,
2013-02-24 18:46:00,37.0,24.9,29.68,NNW,337,2.7,-999.0,61,-99.99,,,0.01,Acu-Link.com,2013-02-24 23:46:00,
2013-02-24 19:01:00,36.3,24.6,29.69,West,270,2.7,-999.0,62,-99.99,,,0.01,Acu-Link.com,2013-02-25 00:01:00,
2013-02-24 19:16:00,35.8,24.1,29.69,ENE,67,3.1,-999.0,62,-99.99,,,0.01,Acu-Link.com,2013-02-25 00:16:00,
2013-02-24 19:31:00,35.6,23.9,29.70,West,270,4.7,-999.0,62,-99.99,,,0.01,Acu-Link.com,2013-02-25 00:31:00,
2013-02-24 19:47:00,35.1,23.8,29.70,NW,315,2.7,-999.0,63,-99.99,,,0.01,Acu-Link.com,2013-02-25 00:47:00,
2013-02-24 20:02:00,34.7,23.8,29.72,West,270,2.7,-999.0,64,-99.99,,,0.01,Acu-Link.com,2013-02-25 01:02:00,
2013-02-24 20:17:00,34.5,23.6,29.72,WNW,292,3.1,-999.0,64,-99.99,,,0.01,Acu-Link.com,2013-02-25 01:17:00,
2013-02-24 20:32:00,34.3,23.4,29.73,SW,225,2.7,-999.0,64,-99.99,,,0.01,Acu-Link.com,2013-02-25 01:32:00,
2013-02-24 20:48:00,34.2,23.3,29.73,WSW,247,5.1,-999.0,64,-99.99,,,0.01,Acu-Link.com,2013-02-25 01:48:00,
2013-02-24 21:03:00,33.6,23.1,29.74,WSW,247,5.1,-999.0,65,-99.99,,,0.01,Acu-Link.com,2013-02-25 02:03:00,
2013-02-24 21:18:00,33.6,23.1,29.74,WNW,292,2.7,-999.0,65,-99.99,,,0.01,Acu-Link.com,2013-02-25 02:18:00,
2013-02-24 21:33:00,33.3,22.8,29.74,SW,225,4.3,-999.0,65,-99.99,,,0.01,Acu-Link.com,2013-02-25 02:33:00,
2013-02-24 21:48:00,33.3,22.8,29.75,WSW,247,3.1,-999.0,65,-99.99,,,0.01,Acu-Link.com,2013-02-25 02:48:00,
2013-02-24 22:04:00,32.5,22.8,29.75,North,0,2.7,-999.0,67,-99.99,,,0.01,Acu-Link.com,2013-02-25 03:04:00,
2013-02-24 22:19:00,32.4,22.6,29.75,NNW,337,1.6,-999.0,67,-99.99,,,0.01,Acu-Link.com,2013-02-25 03:19:00,
2013-02-24 22:34:00,32.0,22.3,29.76,WSW,247,1.6,-999.0,67,-99.99,,,0.01,Acu-Link.com,2013-02-25 03:34:00,
2013-02-24 22:49:00,32.0,22.3,29.76,WNW,292,2.2,-999.0,67,-99.99,,,0.01,Acu-Link.com,2013-02-25 03:49:00,
2013-02-24 23:05:00,31.8,22.1,29.76,NNW,337,1.6,-999.0,67,-99.99,,,0.01,Acu-Link.com,2013-02-25 04:05:00,
2013-02-24 23:20:00,31.8,22.1,29.76,WNW,292,3.1,-999.0,67,-99.99,,,0.01,Acu-Link.com,2013-02-25 04:20:00,
2013-02-24 23:35:00,32.0,22.3,29.76,NNW,337,3.8,-999.0,67,-99.99,,,0.01,Acu-Link.com,2013-02-25 04:35:00,
2013-02-24 23:51:00,32.0,22.3,29.77,West,270,3.8,-999.0,67,-99.99,,,0.01,Acu-Link.com,2013-02-25 04:51:00,